createdAt,value
2023-02-06T00:00:09.900Z,978.06
2023-02-06T00:01:09.923Z,978.05
2023-02-06T00:04:10.114Z,978.09
2023-02-06T00:05:09.944Z,978.08
2023-02-06T00:06:09.922Z,978.07
2023-02-06T00:07:10.067Z,978.05
2023-02-06T00:08:09.926Z,978.03
2023-02-06T00:09:10.039Z,978.02
2023-02-06T00:10:09.961Z,978.01
2023-02-06T00:11:09.930Z,977.99
2023-02-06T00:12:09.976Z,978
2023-02-06T00:13:09.936Z,977.98
2023-02-06T00:14:10.034Z,977.99
2023-02-06T00:15:09.943Z,977.98
2023-02-06T00:16:11.069Z,977.97
2023-02-06T00:17:10.061Z,978
2023-02-06T00:18:10.016Z,977.95
2023-02-06T00:19:09.959Z,977.99
2023-02-06T00:20:10.045Z,977.97
2023-02-06T00:21:10.022Z,978
2023-02-06T00:22:09.944Z,978.03
2023-02-06T00:23:10.066Z,978.07
2023-02-06T00:24:10.020Z,978.04
2023-02-06T00:25:09.986Z,978.07
2023-02-06T00:26:09.963Z,978.06
2023-02-06T00:27:14.066Z,978.09
2023-02-06T00:29:10.107Z,978.07
2023-02-06T00:30:09.993Z,978.14
2023-02-06T00:32:10.180Z,978.16
2023-02-06T00:33:10.148Z,978.12
2023-02-06T00:34:09.982Z,978.1
2023-02-06T00:35:11.135Z,978.08
2023-02-06T00:36:11.126Z,978.1
2023-02-06T00:38:10.044Z,978.12
2023-02-06T00:39:10.164Z,978.15
2023-02-06T00:41:10.162Z,978.16
2023-02-06T00:42:10.033Z,978.15
2023-02-06T00:43:10.183Z,978.12
2023-02-06T00:44:10.082Z,978.09
2023-02-06T00:45:10.026Z,978.1
2023-02-06T00:46:10.160Z,978.12
2023-02-06T00:47:10.112Z,978.11
2023-02-06T00:48:10.064Z,978.15
2023-02-06T00:49:10.129Z,978.09
2023-02-06T00:50:10.067Z,978.11
2023-02-06T00:51:10.041Z,978.09
2023-02-06T00:52:10.216Z,978.06
2023-02-06T00:53:10.045Z,978.05
2023-02-06T00:54:10.058Z,978.04
2023-02-06T00:55:10.135Z,978.02
2023-02-06T00:56:10.045Z,977.99
2023-02-06T00:57:10.064Z,977.98
2023-02-06T00:58:10.043Z,978
2023-02-06T00:59:10.047Z,978.04
2023-02-06T01:00:10.055Z,978.01
2023-02-06T01:01:10.059Z,977.97
2023-02-06T01:02:10.217Z,978
2023-02-06T01:03:10.114Z,978.01
2023-02-06T01:04:10.066Z,978
2023-02-06T01:05:10.092Z,978.01
2023-02-06T01:06:10.186Z,978.08
2023-02-06T01:07:10.153Z,978.09
2023-02-06T01:09:10.133Z,978.1
2023-02-06T01:10:10.181Z,978.15
2023-02-06T01:11:11.293Z,978.16
2023-02-06T01:12:10.192Z,978.18
2023-02-06T01:13:10.078Z,978.17
2023-02-06T01:14:10.086Z,978.16
2023-02-06T01:15:10.197Z,978.2
2023-02-06T01:16:10.276Z,978.16
2023-02-06T01:17:10.135Z,978.15
2023-02-06T01:19:10.163Z,978.19
2023-02-06T01:21:10.165Z,978.13
2023-02-06T01:22:10.196Z,978.17
2023-02-06T01:24:10.207Z,978.22
2023-02-06T01:27:10.283Z,978.21
2023-02-06T01:28:10.155Z,978.19
2023-02-06T01:29:10.101Z,978.16
2023-02-06T01:30:10.122Z,978.17
2023-02-06T01:31:10.166Z,978.1
2023-02-06T01:32:10.184Z,978.15
2023-02-06T01:33:10.227Z,978.14
2023-02-06T01:35:10.151Z,978.13
2023-02-06T01:36:10.137Z,978.14
2023-02-06T01:37:10.289Z,978.12
2023-02-06T01:38:10.152Z,978.11
2023-02-06T01:39:10.222Z,978.12
2023-02-06T01:40:10.157Z,978.09
2023-02-06T01:41:10.166Z,978.05
2023-02-06T01:43:10.287Z,978.04
2023-02-06T01:45:10.229Z,978.05
2023-02-06T01:46:10.159Z,978.06
2023-02-06T01:47:10.282Z,978.03
2023-02-06T01:48:10.152Z,978.01
2023-02-06T01:49:10.235Z,977.99
2023-02-06T01:50:10.164Z,978.01
2023-02-06T01:51:10.284Z,978
2023-02-06T01:52:10.183Z,977.99
2023-02-06T01:54:10.308Z,978
2023-02-06T01:55:10.339Z,977.99
2023-02-06T01:56:10.186Z,977.98
2023-02-06T01:58:10.330Z,977.95
2023-02-06T01:59:10.204Z,977.94
2023-02-06T02:00:10.265Z,977.93
2023-02-06T02:01:10.292Z,977.91
2023-02-06T02:02:10.333Z,977.92
2023-02-06T02:06:10.350Z,977.93
2023-02-06T02:08:10.364Z,977.96
2023-02-06T02:10:11.584Z,977.95
2023-02-06T02:12:10.389Z,977.94
2023-02-06T02:13:10.340Z,977.93
2023-02-06T02:14:10.325Z,977.96
2023-02-06T02:15:10.284Z,977.93
2023-02-06T02:16:10.240Z,977.9
2023-02-06T02:17:10.316Z,977.91
2023-02-06T02:19:10.364Z,977.89
2023-02-06T02:20:10.320Z,977.85
2023-02-06T02:21:10.295Z,977.83
2023-02-06T02:22:10.305Z,977.87
2023-02-06T02:23:10.332Z,977.84
2023-02-06T02:25:10.366Z,977.85
2023-02-06T02:26:10.341Z,977.83
2023-02-06T02:27:10.419Z,977.78
2023-02-06T02:29:10.358Z,977.8
2023-02-06T02:30:10.405Z,977.77
2023-02-06T02:31:10.415Z,977.73
2023-02-06T02:32:10.357Z,977.71
2023-02-06T02:33:10.302Z,977.73
2023-02-06T02:34:10.272Z,977.71
2023-02-06T02:36:10.521Z,977.67
2023-02-06T02:37:10.408Z,977.66
2023-02-06T02:38:10.290Z,977.69
2023-02-06T02:39:10.308Z,977.72
2023-02-06T02:40:10.291Z,977.71
2023-02-06T02:41:10.355Z,977.74
2023-02-06T02:42:10.287Z,977.73
2023-02-06T02:43:10.398Z,977.74
2023-02-06T02:44:10.312Z,977.69
2023-02-06T02:45:10.303Z,977.7
2023-02-06T02:46:10.385Z,977.64
2023-02-06T02:47:10.358Z,977.65
2023-02-06T02:48:10.301Z,977.6
2023-02-06T02:50:10.321Z,977.62
2023-02-06T02:51:10.456Z,977.66
2023-02-06T02:52:10.366Z,977.64
2023-02-06T02:53:10.367Z,977.62
2023-02-06T02:54:10.323Z,977.61
2023-02-06T02:55:10.317Z,977.64
2023-02-06T02:56:10.470Z,977.67
2023-02-06T02:57:10.453Z,977.69
2023-02-06T02:58:10.313Z,977.71
2023-02-06T02:59:10.333Z,977.68
2023-02-06T03:00:10.321Z,977.7
2023-02-06T03:01:10.380Z,977.71
2023-02-06T03:02:11.382Z,977.72
2023-02-06T03:03:10.443Z,977.75
2023-02-06T03:06:10.535Z,977.74
2023-02-06T03:08:10.386Z,977.72
2023-02-06T03:09:10.456Z,977.73
2023-02-06T03:10:10.349Z,977.77
2023-02-06T03:11:10.458Z,977.75
2023-02-06T03:12:10.465Z,977.76
2023-02-06T03:13:10.423Z,977.77
2023-02-06T03:14:10.363Z,977.78
2023-02-06T03:15:10.374Z,977.8
2023-02-06T03:16:10.428Z,977.82
2023-02-06T03:17:10.505Z,977.8
2023-02-06T03:18:10.467Z,977.79
2023-02-06T03:19:10.439Z,977.77
2023-02-06T03:20:10.509Z,977.81
2023-02-06T03:21:10.470Z,977.79
2023-02-06T03:23:10.397Z,977.8
2023-02-06T03:24:10.373Z,977.81
2023-02-06T03:25:10.552Z,977.83
2023-02-06T03:26:10.399Z,977.84
2023-02-06T03:27:10.401Z,977.86
2023-02-06T03:28:10.595Z,977.84
2023-02-06T03:29:10.519Z,977.87
2023-02-06T03:30:10.491Z,977.86
2023-02-06T03:31:10.406Z,977.89
2023-02-06T03:32:10.409Z,977.88
2023-02-06T03:33:10.496Z,977.91
2023-02-06T03:34:10.449Z,977.9
2023-02-06T03:35:10.536Z,977.91
2023-02-06T03:36:10.481Z,977.89
2023-02-06T03:37:10.411Z,977.85
2023-02-06T03:38:10.559Z,977.83
2023-02-06T03:39:10.473Z,977.8
2023-02-06T03:40:11.790Z,977.78
2023-02-06T03:41:10.531Z,977.83
2023-02-06T03:42:10.525Z,977.81
2023-02-06T03:43:10.469Z,977.82
2023-02-06T03:45:10.595Z,977.8
2023-02-06T03:46:10.746Z,977.75
2023-02-06T03:47:10.541Z,977.76
2023-02-06T03:48:10.446Z,977.78
2023-02-06T03:49:10.520Z,977.77
2023-02-06T03:50:10.448Z,977.75
2023-02-06T03:51:10.531Z,977.79
2023-02-06T03:52:10.606Z,977.76
2023-02-06T03:53:10.563Z,977.83
2023-02-06T03:54:10.483Z,977.74
2023-02-06T03:55:10.471Z,977.76
2023-02-06T03:56:10.558Z,977.79
2023-02-06T03:57:10.489Z,977.74
2023-02-06T03:58:10.609Z,977.75
2023-02-06T03:59:10.570Z,977.69
2023-02-06T04:00:10.481Z,977.68
2023-02-06T04:02:10.646Z,977.69
2023-02-06T04:03:10.638Z,977.73
2023-02-06T04:05:10.679Z,977.79
2023-02-06T04:06:10.574Z,977.83
2023-02-06T04:07:10.636Z,977.86
2023-02-06T04:08:10.589Z,977.88
2023-02-06T04:09:10.656Z,977.92
2023-02-06T04:10:10.632Z,977.95
2023-02-06T04:11:10.584Z,977.94
2023-02-06T04:13:10.610Z,977.92
2023-02-06T04:14:10.591Z,977.88
2023-02-06T04:17:10.683Z,977.91
2023-02-06T04:18:10.616Z,977.95
2023-02-06T04:19:10.519Z,977.93
2023-02-06T04:20:10.590Z,977.94
2023-02-06T04:21:10.568Z,977.92
2023-02-06T04:22:10.525Z,977.9
2023-02-06T04:23:10.583Z,977.88
2023-02-06T04:25:10.629Z,977.92
2023-02-06T04:26:10.607Z,977.91
2023-02-06T04:27:10.547Z,977.89
2023-02-06T04:28:10.554Z,977.92
2023-02-06T04:30:10.541Z,977.9
2023-02-06T04:31:10.748Z,977.86
2023-02-06T04:32:10.554Z,977.87
2023-02-06T04:33:10.547Z,977.88
2023-02-06T04:34:10.547Z,977.9
2023-02-06T04:35:10.554Z,977.93
2023-02-06T04:36:10.682Z,977.95
2023-02-06T04:37:10.624Z,977.97
2023-02-06T04:38:10.565Z,978.01
2023-02-06T04:39:10.561Z,978.03
2023-02-06T04:40:10.640Z,977.99
2023-02-06T04:42:10.739Z,978.02
2023-02-06T04:43:10.668Z,978.01
2023-02-06T04:44:10.618Z,977.99
2023-02-06T04:45:10.690Z,977.96
2023-02-06T04:46:10.671Z,977.91
2023-02-06T04:48:10.779Z,977.9
2023-02-06T04:49:10.670Z,977.85
2023-02-06T04:50:10.625Z,977.83
2023-02-06T04:51:10.694Z,977.78
2023-02-06T04:52:10.592Z,977.81
2023-02-06T04:53:10.716Z,977.76
2023-02-06T04:54:10.699Z,977.79
2023-02-06T04:55:10.601Z,977.78
2023-02-06T04:56:10.619Z,977.76
2023-02-06T04:57:10.708Z,977.77
2023-02-06T04:58:10.668Z,977.75
2023-02-06T04:59:10.749Z,977.76
2023-02-06T05:00:10.614Z,977.72
2023-02-06T05:01:10.715Z,977.69
2023-02-06T05:02:10.612Z,977.71
2023-02-06T05:03:10.742Z,977.72
2023-02-06T05:04:10.620Z,977.74
2023-02-06T05:05:10.627Z,977.72
2023-02-06T05:06:10.608Z,977.74
2023-02-06T05:07:10.769Z,977.71
2023-02-06T05:08:10.638Z,977.75
2023-02-06T05:10:10.829Z,977.74
2023-02-06T05:14:10.681Z,977.73
2023-02-06T05:15:10.638Z,977.7
2023-02-06T05:16:10.833Z,977.68
2023-02-06T05:17:10.757Z,977.7
2023-02-06T05:18:10.638Z,977.74
2023-02-06T05:19:10.659Z,977.72
2023-02-06T05:21:10.728Z,977.69
2023-02-06T05:22:10.846Z,977.71
2023-02-06T05:23:10.761Z,977.7
2023-02-06T05:24:10.654Z,977.72
2023-02-06T05:26:10.805Z,977.66
2023-02-06T05:29:10.746Z,977.68
2023-02-06T05:30:10.712Z,977.7
2023-02-06T05:31:10.865Z,977.71
2023-02-06T05:32:10.772Z,977.72
2023-02-06T05:33:10.751Z,977.71
2023-02-06T05:35:10.767Z,977.7
2023-02-06T05:36:10.736Z,977.71
2023-02-06T05:37:10.707Z,977.74
2023-02-06T05:38:10.773Z,977.71
2023-02-06T05:39:10.761Z,977.68
2023-02-06T05:40:10.694Z,977.67
2023-02-06T05:41:10.792Z,977.66
2023-02-06T05:42:10.729Z,977.68
2023-02-06T05:43:10.699Z,977.65
2023-02-06T05:44:10.711Z,977.66
2023-02-06T05:45:10.878Z,977.67
2023-02-06T05:46:10.749Z,977.66
2023-02-06T05:47:10.713Z,977.67
2023-02-06T05:48:10.864Z,977.66
2023-02-06T05:49:10.731Z,977.65
2023-02-06T05:51:10.771Z,977.63
2023-02-06T05:53:10.783Z,977.61
2023-02-06T05:54:12.139Z,977.62
2023-02-06T05:55:10.857Z,977.66
2023-02-06T05:56:10.808Z,977.65
2023-02-06T05:57:10.875Z,977.7
2023-02-06T05:58:10.842Z,977.72
2023-02-06T06:00:10.755Z,977.73
2023-02-06T06:02:10.839Z,977.75
2023-02-06T06:03:10.771Z,977.74
2023-02-06T06:04:10.952Z,977.73
2023-02-06T06:05:10.835Z,977.69
2023-02-06T06:06:10.806Z,977.72
2023-02-06T06:07:10.872Z,977.7
2023-02-06T06:08:10.850Z,977.69
2023-02-06T06:09:10.895Z,977.74
2023-02-06T06:10:10.854Z,977.71
2023-02-06T06:11:10.783Z,977.67
2023-02-06T06:12:10.902Z,977.63
2023-02-06T06:13:10.867Z,977.66
2023-02-06T06:15:10.921Z,977.67
2023-02-06T06:16:10.841Z,977.68
2023-02-06T06:17:10.884Z,977.67
2023-02-06T06:18:10.833Z,977.69
2023-02-06T06:20:10.788Z,977.71
2023-02-06T06:21:10.792Z,977.7
2023-02-06T06:22:10.886Z,977.71
2023-02-06T06:23:10.953Z,977.76
2023-02-06T06:24:10.926Z,977.7
2023-02-06T06:25:10.878Z,977.71
2023-02-06T06:26:10.809Z,977.67
2023-02-06T06:27:10.928Z,977.69
2023-02-06T06:28:10.914Z,977.66
2023-02-06T06:30:10.927Z,977.64
2023-02-06T06:31:10.861Z,977.63
2023-02-06T06:32:10.961Z,977.6
2023-02-06T06:33:10.809Z,977.63
2023-02-06T06:34:10.839Z,977.57
2023-02-06T06:35:10.826Z,977.56
2023-02-06T06:36:12.867Z,977.51
2023-02-06T06:37:10.834Z,977.49
2023-02-06T06:38:10.825Z,977.5
2023-02-06T06:41:11.030Z,977.52
2023-02-06T06:42:10.859Z,977.55
2023-02-06T06:45:10.853Z,977.53
2023-02-06T06:46:11.042Z,977.52
2023-02-06T06:47:10.885Z,977.54
2023-02-06T06:48:10.948Z,977.52
2023-02-06T06:49:10.919Z,977.54
2023-02-06T06:50:10.981Z,977.57
2023-02-06T06:51:10.959Z,977.59
2023-02-06T06:52:19.778Z,977.58
2023-02-06T06:53:11.448Z,977.56
2023-02-06T06:54:10.964Z,977.62
2023-02-06T06:55:10.865Z,977.59
2023-02-06T06:56:10.900Z,977.58
2023-02-06T06:57:10.873Z,977.55
2023-02-06T06:58:10.873Z,977.57
2023-02-06T06:59:10.989Z,977.55
2023-02-06T07:00:10.968Z,977.52
2023-02-06T07:01:11.022Z,977.57
2023-02-06T07:02:11.011Z,977.6
2023-02-06T07:03:10.985Z,977.58
2023-02-06T07:04:10.922Z,977.56
2023-02-06T07:06:11.013Z,977.58
2023-02-06T07:07:11.078Z,977.57
2023-02-06T07:08:11.043Z,977.58
2023-02-06T07:09:10.992Z,977.62
2023-02-06T07:10:10.937Z,977.63
2023-02-06T07:11:11.009Z,977.65
2023-02-06T07:12:10.914Z,977.7
2023-02-06T07:13:11.073Z,977.71
2023-02-06T07:16:11.017Z,977.78
2023-02-06T07:17:10.957Z,977.76
2023-02-06T07:19:11.057Z,977.8
2023-02-06T07:20:10.936Z,977.82
2023-02-06T07:21:10.995Z,977.75
2023-02-06T07:22:11.017Z,977.74
2023-02-06T07:23:11.064Z,977.81
2023-02-06T07:24:10.989Z,977.85
2023-02-06T07:25:10.952Z,977.81
2023-02-06T07:26:11.041Z,977.72
2023-02-06T07:27:11.105Z,977.76
2023-02-06T07:28:10.993Z,977.65
2023-02-06T07:29:11.023Z,977.61
2023-02-06T07:30:11.000Z,977.52
2023-02-06T07:31:11.111Z,977.71
2023-02-06T07:32:11.155Z,977.67
2023-02-06T07:33:11.057Z,977.69
2023-02-06T07:34:11.171Z,977.7
2023-02-06T07:35:11.146Z,977.73
2023-02-06T07:36:10.921Z,977.69
2023-02-06T07:37:10.995Z,977.7
2023-02-06T07:38:11.064Z,977.71
2023-02-06T07:39:11.153Z,977.69
2023-02-06T07:40:11.102Z,977.65
2023-02-06T07:42:11.329Z,977.63
2023-02-06T07:43:11.117Z,977.61
2023-02-06T07:44:11.055Z,977.64
2023-02-06T07:45:11.061Z,977.61
2023-02-06T07:46:11.218Z,977.58
2023-02-06T07:47:11.088Z,977.55
2023-02-06T07:48:11.040Z,977.54
2023-02-06T07:49:10.996Z,977.57
2023-02-06T07:50:11.072Z,977.55
2023-02-06T07:51:11.148Z,977.53
2023-02-06T07:52:11.140Z,977.6
2023-02-06T07:53:12.213Z,977.58
2023-02-06T07:54:11.036Z,977.59
2023-02-06T07:55:11.143Z,977.63
2023-02-06T07:56:11.190Z,977.6
2023-02-06T07:58:11.136Z,977.56
2023-02-06T07:59:11.119Z,977.57
2023-02-06T08:00:11.022Z,977.58
2023-02-06T08:01:11.169Z,977.57
2023-02-06T08:02:11.086Z,977.58
2023-02-06T08:03:11.041Z,977.6
2023-02-06T08:04:11.155Z,977.65
2023-02-06T08:05:11.209Z,977.7
2023-02-06T08:06:11.169Z,977.74
2023-02-06T08:07:11.036Z,977.75
2023-02-06T08:08:11.213Z,977.79
2023-02-06T08:09:11.042Z,977.73
2023-02-06T08:10:11.108Z,977.78
2023-02-06T08:12:12.006Z,977.8
2023-02-06T08:13:11.169Z,977.76
2023-02-06T08:14:11.207Z,977.74
2023-02-06T08:15:11.198Z,977.75
2023-02-06T08:16:11.168Z,977.78
2023-02-06T08:17:11.235Z,977.74
2023-02-06T08:18:11.183Z,977.76
2023-02-06T08:19:11.155Z,977.75
2023-02-06T08:20:11.097Z,977.78
2023-02-06T08:22:11.223Z,977.79
2023-02-06T08:24:11.251Z,977.75
2023-02-06T08:25:11.167Z,977.79
2023-02-06T08:26:11.116Z,977.77
2023-02-06T08:27:11.196Z,977.79
2023-02-06T08:28:11.136Z,977.74
2023-02-06T08:29:11.149Z,977.69
2023-02-06T08:30:11.102Z,977.72
2023-02-06T08:31:11.330Z,977.73
2023-02-06T08:32:11.107Z,977.72
2023-02-06T08:33:11.198Z,977.75
2023-02-06T08:34:11.124Z,977.78
2023-02-06T08:35:11.228Z,977.79
2023-02-06T08:36:11.104Z,977.83
2023-02-06T08:37:11.280Z,977.81
2023-02-06T08:38:11.141Z,977.79
2023-02-06T08:39:11.202Z,977.81
2023-02-06T08:40:11.176Z,977.85
2023-02-06T08:41:11.227Z,977.84
2023-02-06T08:42:11.197Z,977.83
2023-02-06T08:43:11.144Z,977.89
2023-02-06T08:44:11.249Z,977.88
2023-02-06T08:45:11.198Z,977.89
2023-02-06T08:46:11.195Z,977.86
2023-02-06T08:47:11.250Z,977.85
2023-02-06T08:49:11.232Z,977.88
2023-02-06T08:50:11.277Z,977.89
2023-02-06T08:51:11.211Z,977.88
2023-02-06T08:52:11.312Z,977.93
2023-02-06T08:53:11.160Z,977.95
2023-02-06T08:54:11.234Z,977.94
2023-02-06T08:55:11.160Z,977.92
2023-02-06T08:56:11.192Z,977.91
2023-02-06T08:57:11.236Z,977.9
2023-02-06T08:58:11.198Z,977.86
2023-02-06T08:59:11.256Z,977.87
2023-02-06T09:00:11.147Z,977.88
2023-02-06T09:01:11.174Z,977.89
2023-02-06T09:02:11.349Z,977.92
2023-02-06T09:03:11.360Z,977.96
2023-02-06T09:05:11.372Z,977.99
2023-02-06T09:06:11.245Z,978.02
2023-02-06T09:07:11.174Z,978.01
2023-02-06T09:08:11.304Z,977.97
2023-02-06T09:09:11.321Z,978
2023-02-06T09:10:19.019Z,977.97
2023-02-06T09:11:11.189Z,978.01
2023-02-06T09:12:11.248Z,977.92
2023-02-06T09:13:11.310Z,977.91
2023-02-06T09:14:11.276Z,977.93
2023-02-06T09:15:11.247Z,977.94
2023-02-06T09:17:11.402Z,977.97
2023-02-06T09:18:11.261Z,977.98
2023-02-06T09:19:11.197Z,977.99
2023-02-06T09:20:11.209Z,978
2023-02-06T09:21:11.227Z,977.97
2023-02-06T09:22:11.210Z,977.99
2023-02-06T09:23:11.289Z,977.97
2023-02-06T09:24:11.205Z,978.01
2023-02-06T09:25:11.319Z,977.98
2023-02-06T09:26:11.235Z,977.96
2023-02-06T09:28:11.347Z,977.88
2023-02-06T09:29:11.297Z,977.87
2023-02-06T09:30:11.249Z,977.86
2023-02-06T09:31:11.400Z,977.87
2023-02-06T09:33:11.428Z,977.81
2023-02-06T09:34:11.358Z,977.82
2023-02-06T09:36:11.451Z,977.8
2023-02-06T09:37:11.353Z,977.82
2023-02-06T09:38:11.231Z,977.79
2023-02-06T09:39:11.377Z,977.85
2023-02-06T09:40:11.247Z,977.87
2023-02-06T09:41:11.250Z,977.89
2023-02-06T09:42:11.381Z,977.92
2023-02-06T09:43:11.350Z,977.91
2023-02-06T09:44:11.342Z,977.96
2023-02-06T09:45:11.403Z,977.92
2023-02-06T09:46:11.283Z,977.96
2023-02-06T09:47:11.295Z,977.97
2023-02-06T09:48:11.400Z,977.94
2023-02-06T09:49:11.375Z,977.9
2023-02-06T09:50:11.320Z,977.93
2023-02-06T09:51:11.374Z,977.91
2023-02-06T09:52:11.342Z,977.93
2023-02-06T09:53:11.289Z,977.92
2023-02-06T09:54:11.286Z,977.9
2023-02-06T09:55:11.345Z,977.88
2023-02-06T09:56:11.361Z,977.86
2023-02-06T09:57:11.384Z,977.85
2023-02-06T09:58:11.363Z,977.87
2023-02-06T09:59:11.339Z,977.85
2023-02-06T10:00:11.287Z,977.82
2023-02-06T10:01:11.289Z,977.85
2023-02-06T10:02:11.330Z,977.86
2023-02-06T10:03:11.404Z,977.88
2023-02-06T10:05:11.405Z,977.89
2023-02-06T10:06:11.327Z,977.85
2023-02-06T10:09:11.445Z,977.83
2023-02-06T10:10:11.400Z,977.81
2023-02-06T10:11:11.329Z,977.82
2023-02-06T10:12:11.418Z,977.84
2023-02-06T10:13:12.367Z,977.87
2023-02-06T10:14:11.324Z,977.83
2023-02-06T10:15:11.423Z,977.87
2023-02-06T10:16:11.882Z,977.89
2023-02-06T10:17:11.457Z,977.88
2023-02-06T10:18:11.461Z,977.89
2023-02-06T10:19:11.347Z,977.84
2023-02-06T10:20:11.463Z,977.85
2023-02-06T10:21:11.340Z,977.83
2023-02-06T10:22:11.405Z,977.82
2023-02-06T10:24:11.541Z,977.79
2023-02-06T10:25:12.484Z,977.76
2023-02-06T10:26:11.368Z,977.73
2023-02-06T10:29:11.554Z,977.69
2023-02-06T10:30:11.363Z,977.68
2023-02-06T10:31:11.439Z,977.71
2023-02-06T10:32:11.493Z,977.64
2023-02-06T10:33:20.274Z,977.61
2023-02-06T10:34:11.858Z,977.57
2023-02-06T10:35:11.378Z,977.53
2023-02-06T10:36:11.449Z,977.56
2023-02-06T10:37:11.448Z,977.53
2023-02-06T10:38:11.490Z,977.54
2023-02-06T10:39:11.462Z,977.51
2023-02-06T10:40:11.527Z,977.48
2023-02-06T10:41:11.404Z,977.46
2023-02-06T10:42:11.547Z,977.43
2023-02-06T10:43:11.614Z,977.42
2023-02-06T10:44:11.534Z,977.35
2023-02-06T10:46:11.691Z,977.32
2023-02-06T10:47:11.495Z,977.3
2023-02-06T10:48:11.482Z,977.32
2023-02-06T10:49:11.433Z,977.29
2023-02-06T10:50:11.412Z,977.33
2023-02-06T10:51:11.427Z,977.29
2023-02-06T10:52:11.612Z,977.33
2023-02-06T10:53:11.423Z,977.29
2023-02-06T10:54:11.478Z,977.25
2023-02-06T10:55:11.433Z,977.28
2023-02-06T10:56:11.471Z,977.24
2023-02-06T10:57:11.470Z,977.22
2023-02-06T10:58:11.546Z,977.2
2023-02-06T10:59:11.511Z,977.19
2023-02-06T11:00:11.473Z,977.18
2023-02-06T11:01:24.956Z,977.2
2023-02-06T11:03:11.493Z,977.25
2023-02-06T11:04:11.582Z,977.23
2023-02-06T11:05:11.524Z,977.21
2023-02-06T11:07:11.551Z,977.15
2023-02-06T11:08:11.544Z,977.11
2023-02-06T11:09:11.502Z,977.01
2023-02-06T11:10:11.562Z,977.05
2023-02-06T11:11:11.525Z,977.03
2023-02-06T11:12:12.655Z,977.01
2023-02-06T11:13:11.562Z,976.95
2023-02-06T11:14:11.532Z,976.93
2023-02-06T11:15:11.473Z,976.87
2023-02-06T11:17:11.654Z,976.86
2023-02-06T11:18:11.500Z,976.83
2023-02-06T11:19:11.574Z,976.79
2023-02-06T11:21:11.503Z,976.71
2023-02-06T11:22:11.574Z,976.74
2023-02-06T11:23:11.645Z,976.76
2023-02-06T11:25:11.581Z,976.78
2023-02-06T11:26:11.511Z,976.76
2023-02-06T11:27:11.519Z,976.8
2023-02-06T11:28:11.550Z,976.83
2023-02-06T11:29:11.654Z,976.86
2023-02-06T11:30:11.618Z,976.85
2023-02-06T11:31:11.601Z,976.79
2023-02-06T11:32:11.656Z,976.81
2023-02-06T11:33:11.645Z,976.75
2023-02-06T11:34:11.606Z,976.72
2023-02-06T11:35:12.747Z,976.71
2023-02-06T11:36:11.634Z,976.73
2023-02-06T11:37:11.541Z,976.76
2023-02-06T11:39:11.628Z,976.75
2023-02-06T11:40:11.529Z,976.79
2023-02-06T11:41:12.278Z,976.78
2023-02-06T11:42:11.639Z,976.83
2023-02-06T11:43:11.611Z,976.84
2023-02-06T11:44:11.575Z,976.83
2023-02-06T11:45:11.648Z,976.84
2023-02-06T11:46:11.665Z,976.79
2023-02-06T11:47:11.586Z,976.76
2023-02-06T11:48:11.650Z,976.68
2023-02-06T11:49:11.542Z,976.72
2023-02-06T11:50:11.586Z,976.74
2023-02-06T11:51:11.595Z,976.71
2023-02-06T11:52:11.566Z,976.64
2023-02-06T11:53:11.580Z,976.6
2023-02-06T11:55:11.742Z,976.67
2023-02-06T11:56:11.708Z,976.65
2023-02-06T11:57:11.656Z,976.66
2023-02-06T11:58:11.654Z,976.72
2023-02-06T11:59:11.816Z,976.68
2023-02-06T12:00:11.661Z,976.73
2023-02-06T12:01:11.771Z,976.69
2023-02-06T12:03:11.718Z,976.68
2023-02-06T12:04:11.662Z,976.6
2023-02-06T12:05:11.634Z,976.58
2023-02-06T12:06:11.670Z,976.54
2023-02-06T12:07:11.743Z,976.5
2023-02-06T12:08:11.615Z,976.44
2023-02-06T12:09:11.667Z,976.4
2023-02-06T12:10:11.742Z,976.33
2023-02-06T12:11:12.438Z,976.34
2023-02-06T12:12:11.666Z,976.37
2023-02-06T12:13:11.631Z,976.39
2023-02-06T12:14:11.713Z,976.4
2023-02-06T12:15:33.342Z,976.39
2023-02-06T12:16:11.925Z,976.33
2023-02-06T12:17:11.710Z,976.28
2023-02-06T12:18:11.688Z,976.36
2023-02-06T12:19:11.672Z,976.35
2023-02-06T12:21:11.713Z,976.27
2023-02-06T12:22:11.685Z,976.26
2023-02-06T12:23:11.713Z,976.22
2023-02-06T12:24:11.796Z,976.21
2023-02-06T12:25:11.688Z,976.23
2023-02-06T12:26:11.727Z,976.29
2023-02-06T12:29:11.724Z,976.3
2023-02-06T12:30:11.705Z,976.26
2023-02-06T12:32:11.758Z,976.2
2023-02-06T12:33:11.829Z,976.21
2023-02-06T12:34:11.788Z,976.2
2023-02-06T12:35:11.755Z,976.16
2023-02-06T12:36:11.798Z,976.14
2023-02-06T12:37:11.775Z,976.05
2023-02-06T12:38:11.675Z,976.06
2023-02-06T12:40:11.878Z,976
2023-02-06T12:42:11.728Z,976.05
2023-02-06T12:43:11.715Z,976.04
2023-02-06T12:44:11.684Z,975.98
2023-02-06T12:45:11.750Z,975.97
2023-02-06T12:46:11.808Z,975.96
2023-02-06T12:47:11.752Z,975.93
2023-02-06T12:48:12.311Z,975.92
2023-02-06T12:49:11.796Z,975.96
2023-02-06T12:50:11.766Z,975.93
2023-02-06T12:51:11.694Z,975.9
2023-02-06T12:52:11.808Z,975.93
2023-02-06T12:53:11.699Z,975.92
2023-02-06T12:54:11.830Z,975.97
2023-02-06T12:55:11.796Z,975.87
2023-02-06T12:56:11.705Z,975.82
2023-02-06T12:57:11.735Z,975.79
2023-02-06T12:58:11.797Z,975.74
2023-02-06T12:59:11.702Z,975.71
2023-02-06T13:00:11.762Z,975.69
2023-02-06T13:01:24.571Z,975.71
2023-02-06T13:02:11.943Z,975.72
2023-02-06T13:03:11.903Z,975.7
2023-02-06T13:04:11.824Z,975.69
2023-02-06T13:05:11.802Z,975.62
2023-02-06T13:07:11.802Z,975.66
2023-02-06T13:08:11.903Z,975.7
2023-02-06T13:09:11.864Z,975.68
2023-02-06T13:10:11.753Z,975.7
2023-02-06T13:11:11.782Z,975.73
2023-02-06T13:12:11.855Z,975.72
2023-02-06T13:13:11.749Z,975.65
2023-02-06T13:14:11.757Z,975.61
2023-02-06T13:15:11.872Z,975.57
2023-02-06T13:17:12.030Z,975.51
2023-02-06T13:18:11.889Z,975.57
2023-02-06T13:20:11.812Z,975.56
2023-02-06T13:21:11.910Z,975.58
2023-02-06T13:22:11.929Z,975.57
2023-02-06T13:23:11.928Z,975.53
2023-02-06T13:24:11.879Z,975.54
2023-02-06T13:25:11.789Z,975.51
2023-02-06T13:26:11.938Z,975.52
2023-02-06T13:27:11.782Z,975.53
2023-02-06T13:28:11.877Z,975.52
2023-02-06T13:30:11.847Z,975.51
2023-02-06T13:31:11.947Z,975.53
2023-02-06T13:33:11.961Z,975.5
2023-02-06T13:35:11.926Z,975.41
2023-02-06T13:36:11.846Z,975.37
2023-02-06T13:37:11.828Z,975.35
2023-02-06T13:38:11.855Z,975.31
2023-02-06T13:39:11.898Z,975.34
2023-02-06T13:40:11.837Z,975.38
2023-02-06T13:41:11.937Z,975.35
2023-02-06T13:42:11.808Z,975.37
2023-02-06T13:44:12.028Z,975.35
2023-02-06T13:45:11.930Z,975.34
2023-02-06T13:46:11.912Z,975.36
2023-02-06T13:49:11.874Z,975.38
2023-02-06T13:50:11.963Z,975.39
2023-02-06T13:51:11.916Z,975.4
2023-02-06T13:52:11.904Z,975.44
2023-02-06T13:53:11.842Z,975.43
2023-02-06T13:54:11.847Z,975.45
2023-02-06T13:55:11.877Z,975.49
2023-02-06T13:56:11.946Z,975.47
2023-02-06T13:57:12.536Z,975.45
2023-02-06T13:58:11.870Z,975.44
2023-02-06T13:59:11.981Z,975.42
2023-02-06T14:00:11.878Z,975.4
2023-02-06T14:01:11.924Z,975.37
2023-02-06T14:02:11.963Z,975.33
2023-02-06T14:04:12.024Z,975.3
2023-02-06T14:05:11.884Z,975.26
2023-02-06T14:06:12.048Z,975.25
2023-02-06T14:07:12.016Z,975.22
2023-02-06T14:08:11.926Z,975.23
2023-02-06T14:10:12.096Z,975.27
2023-02-06T14:11:11.983Z,975.3
2023-02-06T14:12:12.079Z,975.26
2023-02-06T14:13:11.901Z,975.34
2023-02-06T14:14:11.972Z,975.29
2023-02-06T14:15:11.925Z,975.24
2023-02-06T14:16:12.035Z,975.23
2023-02-06T14:18:11.947Z,975.32
2023-02-06T14:20:11.989Z,975.31
2023-02-06T14:21:12.048Z,975.34
2023-02-06T14:24:11.972Z,975.31